sensor_id;sensor_type;location;lat;lon;timestamp;P1;durP1;ratioP1;P2;durP2;ratioP2
73575;SDS011;61859;49.204;8.140;2023-03-13T00:01:00;5.67;;;2.00;;
73575;SDS011;61859;49.204;8.140;2023-03-13T00:03:26;3.20;;;1.30;;
73575;SDS011;61859;49.204;8.140;2023-03-13T00:05:56;4.80;;;1.30;;
73575;SDS011;61859;49.204;8.140;2023-03-13T00:08:22;6.70;;;1.93;;
73575;SDS011;61859;49.204;8.140;2023-03-13T00:10:49;7.53;;;2.10;;
73575;SDS011;61859;49.204;8.140;2023-03-13T00:13:14;4.17;;;1.50;;
73575;SDS011;61859;49.204;8.140;2023-03-13T00:15:40;7.40;;;2.00;;
73575;SDS011;61859;49.204;8.140;2023-03-13T00:18:05;7.67;;;1.53;;
73575;SDS011;61859;49.204;8.140;2023-03-13T00:20:31;8.50;;;1.90;;
73575;SDS011;61859;49.204;8.140;2023-03-13T00:22:56;5.97;;;1.73;;
73575;SDS011;61859;49.204;8.140;2023-03-13T00:25:22;9.73;;;1.83;;
73575;SDS011;61859;49.204;8.140;2023-03-13T00:27:47;7.17;;;2.27;;
73575;SDS011;61859;49.204;8.140;2023-03-13T00:30:13;6.30;;;2.00;;
73575;SDS011;61859;49.204;8.140;2023-03-13T00:32:39;4.27;;;1.27;;
73575;SDS011;61859;49.204;8.140;2023-03-13T00:35:10;9.83;;;2.00;;
73575;SDS011;61859;49.204;8.140;2023-03-13T00:37:35;12.83;;;2.10;;
73575;SDS011;61859;49.204;8.140;2023-03-13T00:40:01;4.90;;;2.10;;
73575;SDS011;61859;49.204;8.140;2023-03-13T00:42:28;3.83;;;1.70;;
73575;SDS011;61859;49.204;8.140;2023-03-13T00:44:54;11.73;;;2.30;;
73575;SDS011;61859;49.204;8.140;2023-03-13T00:47:19;6.87;;;2.20;;
73575;SDS011;61859;49.204;8.140;2023-03-13T00:49:45;6.97;;;1.90;;
73575;SDS011;61859;49.204;8.140;2023-03-13T00:52:10;4.47;;;1.80;;
73575;SDS011;61859;49.204;8.140;2023-03-13T00:54:36;5.13;;;1.73;;
73575;SDS011;61859;49.204;8.140;2023-03-13T00:57:01;3.80;;;1.73;;
73575;SDS011;61859;49.204;8.140;2023-03-13T00:59:27;9.30;;;2.27;;
73575;SDS011;61859;49.204;8.140;2023-03-13T01:01:52;6.97;;;2.53;;
73575;SDS011;61859;49.204;8.140;2023-03-13T01:04:18;6.43;;;1.73;;
73575;SDS011;61859;49.204;8.140;2023-03-13T01:06:43;5.30;;;2.00;;
73575;SDS011;61859;49.204;8.140;2023-03-13T01:09:10;4.93;;;2.27;;
73575;SDS011;61859;49.204;8.140;2023-03-13T01:11:38;6.70;;;2.10;;
73575;SDS011;61859;49.204;8.140;2023-03-13T01:14:06;10.00;;;2.80;;
73575;SDS011;61859;49.204;8.140;2023-03-13T01:16:34;5.27;;;2.13;;
73575;SDS011;61859;49.204;8.140;2023-03-13T01:19:07;5.17;;;2.17;;
73575;SDS011;61859;49.204;8.140;2023-03-13T01:21:38;9.40;;;2.47;;
73575;SDS011;61859;49.204;8.140;2023-03-13T01:24:04;9.40;;;2.40;;
73575;SDS011;61859;49.204;8.140;2023-03-13T01:26:30;8.03;;;2.73;;
73575;SDS011;61859;49.204;8.140;2023-03-13T01:28:56;10.00;;;2.50;;
73575;SDS011;61859;49.204;8.140;2023-03-13T01:31:23;11.97;;;2.87;;
73575;SDS011;61859;49.204;8.140;2023-03-13T01:33:54;7.00;;;2.30;;
73575;SDS011;61859;49.204;8.140;2023-03-13T01:36:21;7.83;;;2.43;;
73575;SDS011;61859;49.204;8.140;2023-03-13T01:38:47;5.57;;;1.43;;
73575;SDS011;61859;49.204;8.140;2023-03-13T01:41:15;5.73;;;1.50;;
73575;SDS011;61859;49.204;8.140;2023-03-13T01:43:41;6.90;;;2.37;;
73575;SDS011;61859;49.204;8.140;2023-03-13T01:51:36;7.70;;;1.80;;
73575;SDS011;61859;49.204;8.140;2023-03-13T01:54:06;4.50;;;1.67;;
73575;SDS011;61859;49.204;8.140;2023-03-13T01:56:40;4.47;;;1.43;;
73575;SDS011;61859;49.204;8.140;2023-03-13T01:59:15;5.50;;;1.97;;
73575;SDS011;61859;49.204;8.140;2023-03-13T02:01:45;6.50;;;1.80;;
73575;SDS011;61859;49.204;8.140;2023-03-13T02:04:13;11.03;;;2.00;;
73575;SDS011;61859;49.204;8.140;2023-03-13T02:06:40;3.80;;;1.40;;
73575;SDS011;61859;49.204;8.140;2023-03-13T02:09:09;4.93;;;1.63;;
73575;SDS011;61859;49.204;8.140;2023-03-13T02:11:42;8.03;;;3.33;;
73575;SDS011;61859;49.204;8.140;2023-03-13T02:14:17;2.50;;;0.83;;
73575;SDS011;61859;49.204;8.140;2023-03-13T02:16:44;5.40;;;2.03;;
73575;SDS011;61859;49.204;8.140;2023-03-13T02:19:17;8.33;;;1.73;;
73575;SDS011;61859;49.204;8.140;2023-03-13T02:21:57;6.43;;;1.60;;
73575;SDS011;61859;49.204;8.140;2023-03-13T02:27:23;6.00;;;1.60;;
73575;SDS011;61859;49.204;8.140;2023-03-13T02:29:49;10.33;;;2.67;;
73575;SDS011;61859;49.204;8.140;2023-03-13T02:32:16;3.90;;;1.70;;
73575;SDS011;61859;49.204;8.140;2023-03-13T02:34:41;1.80;;;1.23;;
73575;SDS011;61859;49.204;8.140;2023-03-13T02:37:08;1.77;;;1.03;;
73575;SDS011;61859;49.204;8.140;2023-03-13T02:39:38;9.43;;;4.10;;
73575;SDS011;61859;49.204;8.140;2023-03-13T02:42:09;2.60;;;1.63;;
73575;SDS011;61859;49.204;8.140;2023-03-13T02:44:40;8.00;;;1.93;;
73575;SDS011;61859;49.204;8.140;2023-03-13T02:47:08;6.40;;;1.97;;
73575;SDS011;61859;49.204;8.140;2023-03-13T02:49:34;5.13;;;2.13;;
73575;SDS011;61859;49.204;8.140;2023-03-13T02:52:04;5.97;;;2.53;;
73575;SDS011;61859;49.204;8.140;2023-03-13T02:54:36;7.87;;;2.17;;
73575;SDS011;61859;49.204;8.140;2023-03-13T02:57:04;3.97;;;1.70;;
73575;SDS011;61859;49.204;8.140;2023-03-13T02:59:30;4.47;;;1.47;;
73575;SDS011;61859;49.204;8.140;2023-03-13T03:01:56;7.83;;;2.43;;
73575;SDS011;61859;49.204;8.140;2023-03-13T03:04:22;5.07;;;2.03;;
73575;SDS011;61859;49.204;8.140;2023-03-13T03:06:49;4.63;;;1.83;;
73575;SDS011;61859;49.204;8.140;2023-03-13T03:09:14;11.83;;;2.40;;
73575;SDS011;61859;49.204;8.140;2023-03-13T03:11:40;3.67;;;1.60;;
73575;SDS011;61859;49.204;8.140;2023-03-13T03:14:07;5.03;;;2.10;;
73575;SDS011;61859;49.204;8.140;2023-03-13T03:16:32;5.83;;;1.70;;
73575;SDS011;61859;49.204;8.140;2023-03-13T03:18:58;4.20;;;1.40;;
73575;SDS011;61859;49.204;8.140;2023-03-13T03:21:24;2.10;;;1.43;;
73575;SDS011;61859;49.204;8.140;2023-03-13T03:23:49;6.07;;;1.70;;
73575;SDS011;61859;49.204;8.140;2023-03-13T03:26:15;7.37;;;1.67;;
73575;SDS011;61859;49.204;8.140;2023-03-13T03:28:41;5.47;;;1.70;;
73575;SDS011;61859;49.204;8.140;2023-03-13T03:31:08;4.83;;;1.50;;
73575;SDS011;61859;49.204;8.140;2023-03-13T03:33:35;12.77;;;1.43;;
73575;SDS011;61859;49.204;8.140;2023-03-13T03:36:05;6.30;;;1.70;;
73575;SDS011;61859;49.204;8.140;2023-03-13T03:38:33;7.67;;;1.60;;
73575;SDS011;61859;49.204;8.140;2023-03-13T03:40:59;5.27;;;1.67;;
73575;SDS011;61859;49.204;8.140;2023-03-13T03:43:24;4.43;;;1.97;;
73575;SDS011;61859;49.204;8.140;2023-03-13T03:45:50;7.23;;;1.63;;
73575;SDS011;61859;49.204;8.140;2023-03-13T03:48:15;4.97;;;1.57;;
73575;SDS011;61859;49.204;8.140;2023-03-13T03:50:41;4.73;;;1.43;;
73575;SDS011;61859;49.204;8.140;2023-03-13T03:53:07;5.47;;;1.77;;
73575;SDS011;61859;49.204;8.140;2023-03-13T03:55:33;7.13;;;1.73;;
73575;SDS011;61859;49.204;8.140;2023-03-13T03:57:58;10.47;;;2.57;;
73575;SDS011;61859;49.204;8.140;2023-03-13T04:00:24;5.67;;;1.77;;
73575;SDS011;61859;49.204;8.140;2023-03-13T04:02:53;5.03;;;1.60;;
73575;SDS011;61859;49.204;8.140;2023-03-13T04:05:20;7.30;;;1.57;;
73575;SDS011;61859;49.204;8.140;2023-03-13T04:07:46;6.53;;;1.73;;
73575;SDS011;61859;49.204;8.140;2023-03-13T04:10:11;5.47;;;1.87;;
73575;SDS011;61859;49.204;8.140;2023-03-13T04:12:37;6.97;;;1.63;;
73575;SDS011;61859;49.204;8.140;2023-03-13T04:15:03;6.77;;;1.77;;
73575;SDS011;61859;49.204;8.140;2023-03-13T04:17:29;4.13;;;1.63;;
73575;SDS011;61859;49.204;8.140;2023-03-13T04:19:55;1.40;;;1.17;;
73575;SDS011;61859;49.204;8.140;2023-03-13T04:22:20;4.33;;;1.73;;
73575;SDS011;61859;49.204;8.140;2023-03-13T04:24:46;3.70;;;1.50;;
73575;SDS011;61859;49.204;8.140;2023-03-13T04:27:12;3.70;;;1.60;;
73575;SDS011;61859;49.204;8.140;2023-03-13T04:29:38;5.80;;;2.10;;
73575;SDS011;61859;49.204;8.140;2023-03-13T04:32:04;4.33;;;1.53;;
73575;SDS011;61859;49.204;8.140;2023-03-13T04:34:29;6.50;;;1.70;;
73575;SDS011;61859;49.204;8.140;2023-03-13T04:36:55;2.50;;;1.63;;
73575;SDS011;61859;49.204;8.140;2023-03-13T04:39:20;4.30;;;1.50;;
73575;SDS011;61859;49.204;8.140;2023-03-13T04:41:52;5.20;;;1.80;;
73575;SDS011;61859;49.204;8.140;2023-03-13T04:44:19;8.60;;;1.60;;
73575;SDS011;61859;49.204;8.140;2023-03-13T04:46:45;5.63;;;1.53;;
73575;SDS011;61859;49.204;8.140;2023-03-13T04:49:11;4.43;;;1.87;;
73575;SDS011;61859;49.204;8.140;2023-03-13T04:51:38;4.20;;;1.63;;
73575;SDS011;61859;49.204;8.140;2023-03-13T04:54:05;4.63;;;1.67;;
73575;SDS011;61859;49.204;8.140;2023-03-13T04:56:31;2.47;;;0.87;;
73575;SDS011;61859;49.204;8.140;2023-03-13T04:58:56;5.80;;;1.70;;
73575;SDS011;61859;49.204;8.140;2023-03-13T05:01:22;3.40;;;1.27;;
73575;SDS011;61859;49.204;8.140;2023-03-13T05:03:47;2.23;;;1.03;;
73575;SDS011;61859;49.204;8.140;2023-03-13T05:06:13;2.57;;;1.10;;
73575;SDS011;61859;49.204;8.140;2023-03-13T05:08:39;1.57;;;1.07;;
73575;SDS011;61859;49.204;8.140;2023-03-13T05:11:04;2.90;;;1.00;;
73575;SDS011;61859;49.204;8.140;2023-03-13T05:13:30;3.80;;;0.77;;
73575;SDS011;61859;49.204;8.140;2023-03-13T05:15:55;2.80;;;0.67;;
73575;SDS011;61859;49.204;8.140;2023-03-13T05:18:21;2.30;;;0.80;;
73575;SDS011;61859;49.204;8.140;2023-03-13T05:20:47;0.80;;;0.47;;
73575;SDS011;61859;49.204;8.140;2023-03-13T05:23:13;2.93;;;1.33;;
73575;SDS011;61859;49.204;8.140;2023-03-13T05:25:38;3.33;;;1.23;;
73575;SDS011;61859;49.204;8.140;2023-03-13T05:28:04;4.57;;;0.70;;
73575;SDS011;61859;49.204;8.140;2023-03-13T05:30:30;6.03;;;1.43;;
73575;SDS011;61859;49.204;8.140;2023-03-13T05:32:55;2.13;;;0.63;;
73575;SDS011;61859;49.204;8.140;2023-03-13T05:35:21;6.40;;;1.17;;
73575;SDS011;61859;49.204;8.140;2023-03-13T05:37:46;0.50;;;0.43;;
73575;SDS011;61859;49.204;8.140;2023-03-13T05:40:12;12.13;;;0.77;;
73575;SDS011;61859;49.204;8.140;2023-03-13T05:42:38;1.23;;;1.10;;
73575;SDS011;61859;49.204;8.140;2023-03-13T05:45:03;2.00;;;0.87;;
73575;SDS011;61859;49.204;8.140;2023-03-13T05:47:30;1.57;;;1.37;;
73575;SDS011;61859;49.204;8.140;2023-03-13T05:49:55;2.27;;;0.80;;
73575;SDS011;61859;49.204;8.140;2023-03-13T05:52:21;0.93;;;0.60;;
73575;SDS011;61859;49.204;8.140;2023-03-13T05:54:47;1.07;;;0.40;;
73575;SDS011;61859;49.204;8.140;2023-03-13T05:57:12;3.50;;;0.73;;
73575;SDS011;61859;49.204;8.140;2023-03-13T05:59:38;0.90;;;0.60;;
73575;SDS011;61859;49.204;8.140;2023-03-13T06:02:03;1.23;;;0.80;;
73575;SDS011;61859;49.204;8.140;2023-03-13T06:04:29;1.30;;;0.73;;
73575;SDS011;61859;49.204;8.140;2023-03-13T06:06:54;0.67;;;0.67;;
73575;SDS011;61859;49.204;8.140;2023-03-13T06:09:20;0.50;;;0.50;;
73575;SDS011;61859;49.204;8.140;2023-03-13T06:11:46;1.90;;;0.43;;
73575;SDS011;61859;49.204;8.140;2023-03-13T06:14:11;1.70;;;0.97;;
73575;SDS011;61859;49.204;8.140;2023-03-13T06:16:37;0.77;;;0.77;;
73575;SDS011;61859;49.204;8.140;2023-03-13T06:19:02;0.97;;;0.67;;
73575;SDS011;61859;49.204;8.140;2023-03-13T06:21:28;0.43;;;0.43;;
73575;SDS011;61859;49.204;8.140;2023-03-13T06:23:54;1.80;;;0.70;;
73575;SDS011;61859;49.204;8.140;2023-03-13T06:26:20;1.43;;;0.93;;
73575;SDS011;61859;49.204;8.140;2023-03-13T06:28:45;0.47;;;0.43;;
73575;SDS011;61859;49.204;8.140;2023-03-13T06:31:12;0.90;;;0.50;;
73575;SDS011;61859;49.204;8.140;2023-03-13T06:33:38;1.20;;;0.87;;
73575;SDS011;61859;49.204;8.140;2023-03-13T06:36:03;2.27;;;1.00;;
73575;SDS011;61859;49.204;8.140;2023-03-13T06:38:30;1.47;;;1.00;;
73575;SDS011;61859;49.204;8.140;2023-03-13T06:40:55;1.43;;;0.60;;
73575;SDS011;61859;49.204;8.140;2023-03-13T06:43:21;0.93;;;0.90;;
73575;SDS011;61859;49.204;8.140;2023-03-13T06:45:48;0.90;;;0.60;;
73575;SDS011;61859;49.204;8.140;2023-03-13T06:48:13;1.00;;;0.60;;
73575;SDS011;61859;49.204;8.140;2023-03-13T06:50:39;0.63;;;0.40;;
73575;SDS011;61859;49.204;8.140;2023-03-13T06:53:05;5.40;;;0.60;;
73575;SDS011;61859;49.204;8.140;2023-03-13T06:55:31;0.50;;;0.30;;
73575;SDS011;61859;49.204;8.140;2023-03-13T06:57:57;0.93;;;0.70;;
73575;SDS011;61859;49.204;8.140;2023-03-13T07:00:22;1.73;;;0.70;;
73575;SDS011;61859;49.204;8.140;2023-03-13T07:02:49;3.03;;;0.63;;
73575;SDS011;61859;49.204;8.140;2023-03-13T07:05:15;0.53;;;0.40;;
73575;SDS011;61859;49.204;8.140;2023-03-13T07:07:41;2.57;;;0.50;;
73575;SDS011;61859;49.204;8.140;2023-03-13T07:10:08;0.93;;;0.50;;
73575;SDS011;61859;49.204;8.140;2023-03-13T07:12:35;1.87;;;0.60;;
73575;SDS011;61859;49.204;8.140;2023-03-13T07:15:01;0.40;;;0.40;;
73575;SDS011;61859;49.204;8.140;2023-03-13T07:17:27;1.00;;;0.67;;
73575;SDS011;61859;49.204;8.140;2023-03-13T07:19:52;0.50;;;0.50;;
73575;SDS011;61859;49.204;8.140;2023-03-13T07:22:18;0.40;;;0.40;;
73575;SDS011;61859;49.204;8.140;2023-03-13T07:24:43;1.40;;;0.40;;
73575;SDS011;61859;49.204;8.140;2023-03-13T07:27:09;0.20;;;0.20;;
73575;SDS011;61859;49.204;8.140;2023-03-13T07:29:34;0.83;;;0.60;;
73575;SDS011;61859;49.204;8.140;2023-03-13T07:32:00;0.40;;;0.33;;
73575;SDS011;61859;49.204;8.140;2023-03-13T07:34:25;0.80;;;0.80;;
73575;SDS011;61859;49.204;8.140;2023-03-13T07:36:51;1.30;;;0.80;;
73575;SDS011;61859;49.204;8.140;2023-03-13T07:39:16;1.03;;;0.70;;
73575;SDS011;61859;49.204;8.140;2023-03-13T07:41:42;0.40;;;0.40;;
73575;SDS011;61859;49.204;8.140;2023-03-13T07:44:07;1.17;;;0.50;;
73575;SDS011;61859;49.204;8.140;2023-03-13T07:46:33;1.33;;;1.23;;
73575;SDS011;61859;49.204;8.140;2023-03-13T07:48:58;0.60;;;0.60;;
73575;SDS011;61859;49.204;8.140;2023-03-13T07:51:24;2.13;;;0.53;;
73575;SDS011;61859;49.204;8.140;2023-03-13T07:53:51;0.83;;;0.70;;
73575;SDS011;61859;49.204;8.140;2023-03-13T07:56:18;1.77;;;0.50;;
73575;SDS011;61859;49.204;8.140;2023-03-13T07:58:45;0.60;;;0.60;;
73575;SDS011;61859;49.204;8.140;2023-03-13T08:01:13;1.70;;;0.70;;
73575;SDS011;61859;49.204;8.140;2023-03-13T08:03:40;1.03;;;0.63;;
73575;SDS011;61859;49.204;8.140;2023-03-13T08:06:08;0.37;;;0.33;;
73575;SDS011;61859;49.204;8.140;2023-03-13T08:08:35;2.13;;;0.70;;
73575;SDS011;61859;49.204;8.140;2023-03-13T08:11:02;0.67;;;0.67;;
73575;SDS011;61859;49.204;8.140;2023-03-13T08:13:29;0.80;;;0.70;;
73575;SDS011;61859;49.204;8.140;2023-03-13T08:16:03;2.57;;;0.97;;
73575;SDS011;61859;49.204;8.140;2023-03-13T08:18:29;0.40;;;0.30;;
73575;SDS011;61859;49.204;8.140;2023-03-13T08:20:59;0.63;;;0.57;;
73575;SDS011;61859;49.204;8.140;2023-03-13T08:23:39;0.83;;;0.80;;
73575;SDS011;61859;49.204;8.140;2023-03-13T08:26:09;0.53;;;0.50;;
73575;SDS011;61859;49.204;8.140;2023-03-13T08:28:36;0.50;;;0.50;;
73575;SDS011;61859;49.204;8.140;2023-03-13T08:31:10;0.40;;;0.40;;
73575;SDS011;61859;49.204;8.140;2023-03-13T08:33:36;1.27;;;1.00;;
73575;SDS011;61859;49.204;8.140;2023-03-13T08:36:12;0.97;;;0.77;;
73575;SDS011;61859;49.204;8.140;2023-03-13T08:38:39;0.80;;;0.67;;
73575;SDS011;61859;49.204;8.140;2023-03-13T08:41:11;1.57;;;0.70;;
73575;SDS011;61859;49.204;8.140;2023-03-13T08:43:38;0.87;;;0.47;;
73575;SDS011;61859;49.204;8.140;2023-03-13T08:46:03;0.67;;;0.67;;
73575;SDS011;61859;49.204;8.140;2023-03-13T08:48:29;2.13;;;0.70;;
73575;SDS011;61859;49.204;8.140;2023-03-13T08:51:05;0.63;;;0.50;;
73575;SDS011;61859;49.204;8.140;2023-03-13T08:53:32;0.70;;;0.70;;
73575;SDS011;61859;49.204;8.140;2023-03-13T08:55:59;0.67;;;0.67;;
73575;SDS011;61859;49.204;8.140;2023-03-13T08:58:25;0.57;;;0.47;;
73575;SDS011;61859;49.204;8.140;2023-03-13T09:00:50;1.00;;;0.70;;
73575;SDS011;61859;49.204;8.140;2023-03-13T09:03:16;1.93;;;0.60;;
73575;SDS011;61859;49.204;8.140;2023-03-13T09:05:42;1.50;;;0.80;;
73575;SDS011;61859;49.204;8.140;2023-03-13T09:08:08;2.63;;;0.70;;
73575;SDS011;61859;49.204;8.140;2023-03-13T09:10:34;1.50;;;0.63;;
73575;SDS011;61859;49.204;8.140;2023-03-13T09:13:00;0.80;;;0.60;;
73575;SDS011;61859;49.204;8.140;2023-03-13T09:15:26;0.40;;;0.40;;
73575;SDS011;61859;49.204;8.140;2023-03-13T09:17:51;1.23;;;0.70;;
73575;SDS011;61859;49.204;8.140;2023-03-13T09:20:17;1.23;;;0.77;;
73575;SDS011;61859;49.204;8.140;2023-03-13T09:22:43;0.80;;;0.70;;
73575;SDS011;61859;49.204;8.140;2023-03-13T09:25:09;1.47;;;0.70;;
73575;SDS011;61859;49.204;8.140;2023-03-13T09:27:35;0.60;;;0.50;;
73575;SDS011;61859;49.204;8.140;2023-03-13T09:30:01;0.77;;;0.70;;
73575;SDS011;61859;49.204;8.140;2023-03-13T09:32:26;1.20;;;0.83;;
73575;SDS011;61859;49.204;8.140;2023-03-13T09:34:52;2.53;;;0.93;;
73575;SDS011;61859;49.204;8.140;2023-03-13T09:37:17;3.07;;;0.93;;
73575;SDS011;61859;49.204;8.140;2023-03-13T09:39:43;0.93;;;0.83;;
73575;SDS011;61859;49.204;8.140;2023-03-13T09:42:11;1.13;;;0.90;;
73575;SDS011;61859;49.204;8.140;2023-03-13T09:44:44;2.37;;;1.00;;
73575;SDS011;61859;49.204;8.140;2023-03-13T09:47:28;2.30;;;1.03;;
73575;SDS011;61859;49.204;8.140;2023-03-13T09:50:39;1.20;;;1.10;;
73575;SDS011;61859;49.204;8.140;2023-03-13T09:53:02;0.77;;;0.70;;
73575;SDS011;61859;49.204;8.140;2023-03-13T09:55:35;1.00;;;0.90;;
73575;SDS011;61859;49.204;8.140;2023-03-13T09:58:21;1.53;;;0.83;;
73575;SDS011;61859;49.204;8.140;2023-03-13T10:01:03;1.33;;;1.23;;
73575;SDS011;61859;49.204;8.140;2023-03-13T10:03:39;2.10;;;1.10;;
73575;SDS011;61859;49.204;8.140;2023-03-13T10:06:20;1.70;;;0.67;;
73575;SDS011;61859;49.204;8.140;2023-03-13T10:08:48;2.00;;;0.80;;
73575;SDS011;61859;49.204;8.140;2023-03-13T10:11:27;2.60;;;1.10;;
73575;SDS011;61859;49.204;8.140;2023-03-13T10:14:18;3.17;;;1.33;;
73575;SDS011;61859;49.204;8.140;2023-03-13T10:16:55;2.60;;;0.90;;
73575;SDS011;61859;49.204;8.140;2023-03-13T10:19:42;1.60;;;0.90;;
73575;SDS011;61859;49.204;8.140;2023-03-13T10:22:15;1.07;;;0.77;;
73575;SDS011;61859;49.204;8.140;2023-03-13T10:27:30;1.30;;;1.20;;
73575;SDS011;61859;49.204;8.140;2023-03-13T10:30:08;2.30;;;0.93;;
73575;SDS011;61859;49.204;8.140;2023-03-13T10:32:47;1.33;;;1.00;;
73575;SDS011;61859;49.204;8.140;2023-03-13T10:35:19;2.50;;;0.90;;
73575;SDS011;61859;49.204;8.140;2023-03-13T10:37:47;2.47;;;0.90;;
73575;SDS011;61859;49.204;8.140;2023-03-13T10:40:13;1.37;;;0.87;;
73575;SDS011;61859;49.204;8.140;2023-03-13T10:42:49;2.03;;;0.60;;
73575;SDS011;61859;49.204;8.140;2023-03-13T10:45:17;1.37;;;0.63;;
73575;SDS011;61859;49.204;8.140;2023-03-13T10:47:52;0.90;;;0.80;;
73575;SDS011;61859;49.204;8.140;2023-03-13T10:50:25;2.17;;;1.20;;
73575;SDS011;61859;49.204;8.140;2023-03-13T10:52:52;3.67;;;1.27;;
73575;SDS011;61859;49.204;8.140;2023-03-13T10:55:19;3.47;;;0.93;;
73575;SDS011;61859;49.204;8.140;2023-03-13T10:57:56;1.03;;;1.00;;
73575;SDS011;61859;49.204;8.140;2023-03-13T11:00:27;1.83;;;1.20;;
73575;SDS011;61859;49.204;8.140;2023-03-13T11:02:56;2.87;;;0.60;;
73575;SDS011;61859;49.204;8.140;2023-03-13T11:07:47;1.13;;;0.93;;
73575;SDS011;61859;49.204;8.140;2023-03-13T11:12:43;0.80;;;0.80;;
73575;SDS011;61859;49.204;8.140;2023-03-13T11:15:23;1.87;;;1.07;;
73575;SDS011;61859;49.204;8.140;2023-03-13T11:20:47;0.87;;;0.60;;
73575;SDS011;61859;49.204;8.140;2023-03-13T11:23:18;1.00;;;1.00;;
73575;SDS011;61859;49.204;8.140;2023-03-13T11:25:57;0.70;;;0.70;;
73575;SDS011;61859;49.204;8.140;2023-03-13T11:28:43;0.80;;;0.80;;
73575;SDS011;61859;49.204;8.140;2023-03-13T11:31:28;1.70;;;0.80;;
73575;SDS011;61859;49.204;8.140;2023-03-13T11:34:07;0.73;;;0.60;;
73575;SDS011;61859;49.204;8.140;2023-03-13T11:45:01;0.97;;;0.97;;
73575;SDS011;61859;49.204;8.140;2023-03-13T11:47:42;1.27;;;0.70;;
73575;SDS011;61859;49.204;8.140;2023-03-13T11:58:37;1.70;;;1.00;;
73575;SDS011;61859;49.204;8.140;2023-03-13T12:01:25;1.00;;;0.60;;
73575;SDS011;61859;49.204;8.140;2023-03-13T12:03:58;1.83;;;0.60;;
73575;SDS011;61859;49.204;8.140;2023-03-13T12:06:35;1.70;;;0.80;;
73575;SDS011;61859;49.204;8.140;2023-03-13T12:09:09;0.60;;;0.50;;
73575;SDS011;61859;49.204;8.140;2023-03-13T12:11:40;1.00;;;0.70;;
73575;SDS011;61859;49.204;8.140;2023-03-13T12:14:17;0.30;;;0.30;;
73575;SDS011;61859;49.204;8.140;2023-03-13T12:16:53;1.00;;;0.70;;
73575;SDS011;61859;49.204;8.140;2023-03-13T12:19:26;2.70;;;1.50;;
73575;SDS011;61859;49.204;8.140;2023-03-13T12:22:11;1.07;;;0.97;;
73575;SDS011;61859;49.204;8.140;2023-03-13T12:24:45;6.10;;;3.03;;
73575;SDS011;61859;49.204;8.140;2023-03-13T12:27:20;2.97;;;1.60;;
73575;SDS011;61859;49.204;8.140;2023-03-13T12:30:02;3.33;;;1.97;;
73575;SDS011;61859;49.204;8.140;2023-03-13T12:32:49;0.63;;;0.63;;
73575;SDS011;61859;49.204;8.140;2023-03-13T12:35:26;3.03;;;2.17;;
73575;SDS011;61859;49.204;8.140;2023-03-13T12:37:56;3.90;;;0.80;;
73575;SDS011;61859;49.204;8.140;2023-03-13T12:40:40;0.83;;;0.83;;
73575;SDS011;61859;49.204;8.140;2023-03-13T12:43:18;0.93;;;0.90;;
73575;SDS011;61859;49.204;8.140;2023-03-13T12:48:24;2.60;;;1.40;;
73575;SDS011;61859;49.204;8.140;2023-03-13T12:51:19;1.37;;;1.27;;
73575;SDS011;61859;49.204;8.140;2023-03-13T13:00:15;1.37;;;0.90;;
73575;SDS011;61859;49.204;8.140;2023-03-13T13:02:45;0.83;;;0.77;;
73575;SDS011;61859;49.204;8.140;2023-03-13T13:05:17;1.63;;;0.87;;
73575;SDS011;61859;49.204;8.140;2023-03-13T13:07:51;1.13;;;0.60;;
73575;SDS011;61859;49.204;8.140;2023-03-13T13:10:21;0.60;;;0.60;;
73575;SDS011;61859;49.204;8.140;2023-03-13T13:15:37;1.67;;;0.93;;
73575;SDS011;61859;49.204;8.140;2023-03-13T13:18:24;0.77;;;0.77;;
73575;SDS011;61859;49.204;8.140;2023-03-13T13:23:47;1.80;;;1.65;;
73575;SDS011;61859;49.204;8.140;2023-03-13T13:36:56;0.97;;;0.70;;
73575;SDS011;61859;49.204;8.140;2023-03-13T13:39:39;2.67;;;0.87;;
73575;SDS011;61859;49.204;8.140;2023-03-13T13:45:03;0.50;;;0.50;;
73575;SDS011;61859;49.204;8.140;2023-03-13T13:47:45;0.70;;;0.70;;
73575;SDS011;61859;49.204;8.140;2023-03-13T13:50:19;1.13;;;0.77;;
73575;SDS011;61859;49.204;8.140;2023-03-13T13:52:52;0.45;;;0.45;;
73575;SDS011;61859;49.204;8.140;2023-03-13T13:55:54;1.00;;;0.75;;
73575;SDS011;61859;49.204;8.140;2023-03-13T13:58:23;2.70;;;0.60;;
73575;SDS011;61859;49.204;8.140;2023-03-13T14:00:57;0.95;;;0.75;;
73575;SDS011;61859;49.204;8.140;2023-03-13T14:03:26;0.65;;;0.65;;
73575;SDS011;61859;49.204;8.140;2023-03-13T14:05:55;2.15;;;0.57;;
73575;SDS011;61859;49.204;8.140;2023-03-13T14:08:28;0.63;;;0.63;;
73575;SDS011;61859;49.204;8.140;2023-03-13T14:14:18;1.10;;;0.90;;
73575;SDS011;61859;49.204;8.140;2023-03-13T14:16:46;0.85;;;0.82;;
73575;SDS011;61859;49.204;8.140;2023-03-13T14:19:36;1.48;;;0.90;;
73575;SDS011;61859;49.204;8.140;2023-03-13T14:22:07;0.98;;;0.60;;
73575;SDS011;61859;49.204;8.140;2023-03-13T14:24:34;0.90;;;0.85;;
73575;SDS011;61859;49.204;8.140;2023-03-13T14:27:00;2.80;;;0.90;;
73575;SDS011;61859;49.204;8.140;2023-03-13T14:29:26;1.80;;;0.80;;
73575;SDS011;61859;49.204;8.140;2023-03-13T14:31:53;0.55;;;0.55;;
73575;SDS011;61859;49.204;8.140;2023-03-13T14:34:23;0.52;;;0.50;;
73575;SDS011;61859;49.204;8.140;2023-03-13T14:36:55;1.42;;;0.70;;
73575;SDS011;61859;49.204;8.140;2023-03-13T14:42:03;0.93;;;0.60;;
73575;SDS011;61859;49.204;8.140;2023-03-13T14:44:33;0.50;;;0.40;;
73575;SDS011;61859;49.204;8.140;2023-03-13T14:47:00;0.25;;;0.25;;
73575;SDS011;61859;49.204;8.140;2023-03-13T14:49:29;0.90;;;0.50;;
73575;SDS011;61859;49.204;8.140;2023-03-13T14:52:05;0.50;;;0.50;;
73575;SDS011;61859;49.204;8.140;2023-03-13T14:54:50;1.13;;;0.45;;
73575;SDS011;61859;49.204;8.140;2023-03-13T14:57:20;0.70;;;0.50;;
73575;SDS011;61859;49.204;8.140;2023-03-13T14:59:47;0.43;;;0.30;;
73575;SDS011;61859;49.204;8.140;2023-03-13T15:02:27;0.55;;;0.45;;
73575;SDS011;61859;49.204;8.140;2023-03-13T15:07:37;0.88;;;0.50;;
73575;SDS011;61859;49.204;8.140;2023-03-13T15:10:21;0.40;;;0.40;;
73575;SDS011;61859;49.204;8.140;2023-03-13T15:13:13;2.13;;;0.40;;
73575;SDS011;61859;49.204;8.140;2023-03-13T15:15:58;1.33;;;0.35;;
73575;SDS011;61859;49.204;8.140;2023-03-13T15:18:25;0.50;;;0.50;;
73575;SDS011;61859;49.204;8.140;2023-03-13T15:20:53;0.40;;;0.40;;
73575;SDS011;61859;49.204;8.140;2023-03-13T15:23:21;0.73;;;0.52;;
73575;SDS011;61859;49.204;8.140;2023-03-13T15:25:47;1.40;;;0.70;;
73575;SDS011;61859;49.204;8.140;2023-03-13T15:28:22;0.35;;;0.35;;
73575;SDS011;61859;49.204;8.140;2023-03-13T15:30:48;1.60;;;1.15;;
73575;SDS011;61859;49.204;8.140;2023-03-13T15:33:16;1.13;;;1.02;;
73575;SDS011;61859;49.204;8.140;2023-03-13T15:35:44;0.60;;;0.60;;
73575;SDS011;61859;49.204;8.140;2023-03-13T15:38:12;0.85;;;0.60;;
73575;SDS011;61859;49.204;8.140;2023-03-13T15:40:39;0.75;;;0.60;;
73575;SDS011;61859;49.204;8.140;2023-03-13T15:43:05;1.67;;;0.73;;
73575;SDS011;61859;49.204;8.140;2023-03-13T15:45:31;2.53;;;1.13;;
73575;SDS011;61859;49.204;8.140;2023-03-13T15:47:57;0.68;;;0.68;;
73575;SDS011;61859;49.204;8.140;2023-03-13T15:50:23;2.00;;;1.20;;
73575;SDS011;61859;49.204;8.140;2023-03-13T15:52:53;2.35;;;1.20;;
73575;SDS011;61859;49.204;8.140;2023-03-13T15:55:19;1.07;;;0.80;;
73575;SDS011;61859;49.204;8.140;2023-03-13T15:57:45;1.93;;;0.90;;
73575;SDS011;61859;49.204;8.140;2023-03-13T16:00:21;1.83;;;1.10;;
73575;SDS011;61859;49.204;8.140;2023-03-13T16:02:49;1.07;;;0.70;;
73575;SDS011;61859;49.204;8.140;2023-03-13T16:05:14;0.70;;;0.70;;
73575;SDS011;61859;49.204;8.140;2023-03-13T16:07:41;1.27;;;0.80;;
73575;SDS011;61859;49.204;8.140;2023-03-13T16:10:20;1.13;;;0.60;;
73575;SDS011;61859;49.204;8.140;2023-03-13T16:12:47;0.87;;;0.67;;